OJAM/ADJ METAR and TAF weather

Enter ICAO airport designator
Station Type Date Time Source
OJAM METAR 2021/10/22 20:00 UTC NOAA

OJAM 222000Z 26006KT CAVOK 18/09 Q1021 NOSIG


Station Type Date Time Source
OJAM Decoded METAR 2021/10/22 20:00 UTC NOAA

Amman Airport, Jordan (OJAM) 31-59N 035-59E 768M
Oct 22, 2021 - 04:00 PM EDT / 2021.10.22 2000 UTC
Wind: from the W (260 degrees) at 7 MPH (6 KT):0
Visibility: greater than 7 mile(s):0
Temperature: 64 F (18 C)
Dew Point: 48 F (9 C)
Relative Humidity: 55%
Pressure (altimeter): 30.15 in. Hg (1021 hPa)
ob: OJAM 222000Z 26006KT CAVOK 18/09 Q1021 NOSIG
cycle: 20

Station Type Date Time Source
OJAM TAF 2021/10/22 18:15 UTC NOAA

TAF OJAM 221650Z 2218/2324 VRB02KT 7000 NSC PROB30 2302/2306 3000 BR
BECMG 2305/2307 29010KT 5000 HZ SCT040

Example: see airport list